Auburn, KS (66402)

7:45 AM CST on November 28, 2014 (GMT -0600)
South Pointe Bay Estates | Change Station
CLOSE
Current Station
Personal Weather Station
Location: Auburn, KS
Elevation: 1096 ft
Nearby Weather Stations

Elev 1096 ft 38.95 °N, 95.80 °W | Updated 8 minutes ago

Clear
Clear
33.7 °F
Feels Like 30 °F
N
4.0
Wind Variable Wind from South
Gusts 7.0 mph

Today
High -- | Low -- °F
--% Chance of Precip.
Yesterday
High -- | Low -- °F
Precip. -- in
7:19 AM 5:02 PM
Waxing Crescent, 40% visible
Pressure 30.01 in
Visibility 10.0 miles
Clouds Clear
Windchill 30 °F
Dew Point 27 °F
Humidity 76%
Rainfall 0.00 in
Snow Depth Not available.
UV 0.0 out of 12
Pollen .10 out of 12
Air Quality Not available.
Flu Activity Not available.
METAR KFOE 281253Z 19010KT 10SM CLR 02/M04 A2998 RMK AO2 SLP162 T00221044

More Conditions Fewer Conditions

Pressure 30.01 in
Visibility 10.0 miles
Clouds Clear
Windchill 30 °F
Dew Point 27 °F
Humidity 76%
Rainfall 0.00 in
Snow Depth Not available.
UV 0.0 out of 12
Pollen .10 out of 12
Air Quality Not available.
Flu Activity Not available.
METAR KFOE 281253Z 19010KT 10SM CLR 02/M04 A2998 RMK AO2 SLP162 T00221044

More Conditions Fewer Conditions

10-Day Weather Forecast

Almanac

Astronomy

Nov. 28, 2014 Rise Set
Actual Time
Civil Twilight
Nautical Twilight
Astronomical Twilight
Moon
Length of Visible Light
Length of Day
Tomorrow will be .
, % of the Moon is Illuminated

Today's Extremes

State Highs State Lows

Community

WunderPhotos

Upload Photos

1,774,210 photos uploaded!

WunderBlogs® & News

Nearby

Air Quality

  Air Quality AQ Index Pollutant
Not available.

Snow Depth

Station Depth Elevation

Earthquake Activity

City Distance Mag. Time & Date
Minimum magnitude displayed is 2.5.

Coastal Water Temperatures

Place Temperature

Nearby Weather Stations